sensor_id;sensor_type;location;lat;lon;timestamp;temperature;humidity
49855;DHT22;35752;52.164;21.244;2022-09-02T00:01:50;8.90;99.90
49855;DHT22;35752;52.164;21.244;2022-09-02T00:04:22;8.80;99.90
49855;DHT22;35752;52.164;21.244;2022-09-02T00:06:53;8.80;99.90
49855;DHT22;35752;52.164;21.244;2022-09-02T00:09:20;8.60;99.90
49855;DHT22;35752;52.164;21.244;2022-09-02T00:11:48;8.50;99.90
49855;DHT22;35752;52.164;21.244;2022-09-02T00:14:31;8.40;99.90
49855;DHT22;35752;52.164;21.244;2022-09-02T00:17:00;8.40;99.90
49855;DHT22;35752;52.164;21.244;2022-09-02T00:19:28;8.40;99.90
49855;DHT22;35752;52.164;21.244;2022-09-02T00:21:57;8.40;99.90
49855;DHT22;35752;52.164;21.244;2022-09-02T00:24:26;8.40;99.90
49855;DHT22;35752;52.164;21.244;2022-09-02T00:26:52;8.40;99.90
49855;DHT22;35752;52.164;21.244;2022-09-02T00:29:18;8.50;99.90
49855;DHT22;35752;52.164;21.244;2022-09-02T00:31:44;8.40;99.90
49855;DHT22;35752;52.164;21.244;2022-09-02T00:34:11;8.40;99.90
49855;DHT22;35752;52.164;21.244;2022-09-02T00:36:37;8.50;99.90
49855;DHT22;35752;52.164;21.244;2022-09-02T00:39:04;8.40;99.90
49855;DHT22;35752;52.164;21.244;2022-09-02T00:41:32;8.40;99.90
49855;DHT22;35752;52.164;21.244;2022-09-02T00:44:03;8.50;99.90
49855;DHT22;35752;52.164;21.244;2022-09-02T00:46:31;8.30;99.90
49855;DHT22;35752;52.164;21.244;2022-09-02T00:52:02;8.30;99.90
49855;DHT22;35752;52.164;21.244;2022-09-02T00:54:35;8.20;99.90
49855;DHT22;35752;52.164;21.244;2022-09-02T00:57:07;8.30;99.90
49855;DHT22;35752;52.164;21.244;2022-09-02T01:00:08;8.20;99.90
49855;DHT22;35752;52.164;21.244;2022-09-02T01:02:32;8.20;99.90
49855;DHT22;35752;52.164;21.244;2022-09-02T01:04:59;8.00;99.90
49855;DHT22;35752;52.164;21.244;2022-09-02T01:07:28;7.90;99.90
49855;DHT22;35752;52.164;21.244;2022-09-02T01:09:55;7.90;99.90
49855;DHT22;35752;52.164;21.244;2022-09-02T01:12:22;8.00;99.90
49855;DHT22;35752;52.164;21.244;2022-09-02T01:14:49;8.00;99.90
49855;DHT22;35752;52.164;21.244;2022-09-02T01:17:15;8.10;99.90
49855;DHT22;35752;52.164;21.244;2022-09-02T01:19:48;8.10;99.90
49855;DHT22;35752;52.164;21.244;2022-09-02T01:24:42;8.10;99.90
49855;DHT22;35752;52.164;21.244;2022-09-02T01:27:08;7.90;99.90
49855;DHT22;35752;52.164;21.244;2022-09-02T01:29:33;7.90;99.90
49855;DHT22;35752;52.164;21.244;2022-09-02T01:31:59;7.80;99.90
49855;DHT22;35752;52.164;21.244;2022-09-02T01:34:25;7.80;99.90
49855;DHT22;35752;52.164;21.244;2022-09-02T01:36:51;7.80;99.90
49855;DHT22;35752;52.164;21.244;2022-09-02T01:39:16;7.70;99.90
49855;DHT22;35752;52.164;21.244;2022-09-02T01:41:42;7.80;99.90
49855;DHT22;35752;52.164;21.244;2022-09-02T01:44:09;7.80;99.90
49855;DHT22;35752;52.164;21.244;2022-09-02T01:46:35;7.80;99.90
49855;DHT22;35752;52.164;21.244;2022-09-02T01:49:01;7.80;99.90
49855;DHT22;35752;52.164;21.244;2022-09-02T01:51:26;7.80;99.90
49855;DHT22;35752;52.164;21.244;2022-09-02T01:53:52;7.80;99.90
49855;DHT22;35752;52.164;21.244;2022-09-02T01:56:18;7.80;99.90
49855;DHT22;35752;52.164;21.244;2022-09-02T01:58:44;7.80;99.90
49855;DHT22;35752;52.164;21.244;2022-09-02T02:01:09;7.70;99.90
49855;DHT22;35752;52.164;21.244;2022-09-02T02:03:36;7.70;99.90
49855;DHT22;35752;52.164;21.244;2022-09-02T02:06:10;7.80;99.90
49855;DHT22;35752;52.164;21.244;2022-09-02T02:08:37;7.80;99.90
49855;DHT22;35752;52.164;21.244;2022-09-02T02:11:03;7.80;99.90
49855;DHT22;35752;52.164;21.244;2022-09-02T02:13:29;7.80;99.90
49855;DHT22;35752;52.164;21.244;2022-09-02T02:15:55;7.70;99.90
49855;DHT22;35752;52.164;21.244;2022-09-02T02:18:24;7.70;99.90
49855;DHT22;35752;52.164;21.244;2022-09-02T02:20:49;7.70;99.90
49855;DHT22;35752;52.164;21.244;2022-09-02T02:23:15;7.70;99.90
49855;DHT22;35752;52.164;21.244;2022-09-02T02:25:42;7.60;99.90
49855;DHT22;35752;52.164;21.244;2022-09-02T02:28:08;7.60;99.90
49855;DHT22;35752;52.164;21.244;2022-09-02T02:30:34;7.60;99.90
49855;DHT22;35752;52.164;21.244;2022-09-02T02:33:00;7.50;99.90
49855;DHT22;35752;52.164;21.244;2022-09-02T02:35:26;7.50;99.90
49855;DHT22;35752;52.164;21.244;2022-09-02T02:37:52;7.50;99.90
49855;DHT22;35752;52.164;21.244;2022-09-02T02:40:20;7.40;99.90
49855;DHT22;35752;52.164;21.244;2022-09-02T02:42:46;7.40;99.90
49855;DHT22;35752;52.164;21.244;2022-09-02T02:45:12;7.40;99.90
49855;DHT22;35752;52.164;21.244;2022-09-02T02:47:40;7.40;99.90
49855;DHT22;35752;52.164;21.244;2022-09-02T02:50:09;7.30;99.90
49855;DHT22;35752;52.164;21.244;2022-09-02T02:52:39;7.40;99.90
49855;DHT22;35752;52.164;21.244;2022-09-02T02:55:06;7.40;99.90
49855;DHT22;35752;52.164;21.244;2022-09-02T02:57:33;7.30;99.90
49855;DHT22;35752;52.164;21.244;2022-09-02T03:02:32;7.20;99.90
49855;DHT22;35752;52.164;21.244;2022-09-02T03:04:59;7.20;99.90
49855;DHT22;35752;52.164;21.244;2022-09-02T03:07:26;7.20;99.90
49855;DHT22;35752;52.164;21.244;2022-09-02T03:09:52;7.20;99.90
49855;DHT22;35752;52.164;21.244;2022-09-02T03:12:18;7.20;99.90
49855;DHT22;35752;52.164;21.244;2022-09-02T03:14:43;7.10;99.90
49855;DHT22;35752;52.164;21.244;2022-09-02T03:17:12;7.10;99.90
49855;DHT22;35752;52.164;21.244;2022-09-02T03:19:37;7.10;99.90
49855;DHT22;35752;52.164;21.244;2022-09-02T03:22:03;7.10;99.90
49855;DHT22;35752;52.164;21.244;2022-09-02T03:24:32;7.10;99.90
49855;DHT22;35752;52.164;21.244;2022-09-02T03:26:58;6.90;99.90
49855;DHT22;35752;52.164;21.244;2022-09-02T03:29:23;6.90;99.90
49855;DHT22;35752;52.164;21.244;2022-09-02T03:31:49;6.80;99.90
49855;DHT22;35752;52.164;21.244;2022-09-02T03:34:15;6.90;99.90
49855;DHT22;35752;52.164;21.244;2022-09-02T03:36:43;6.80;99.90
49855;DHT22;35752;52.164;21.244;2022-09-02T03:39:10;6.90;99.90
49855;DHT22;35752;52.164;21.244;2022-09-02T03:41:39;6.90;99.90
49855;DHT22;35752;52.164;21.244;2022-09-02T03:44:09;6.80;99.90
49855;DHT22;35752;52.164;21.244;2022-09-02T03:46:36;7.00;99.90
49855;DHT22;35752;52.164;21.244;2022-09-02T03:49:02;6.90;99.90
49855;DHT22;35752;52.164;21.244;2022-09-02T03:51:31;6.90;99.90
49855;DHT22;35752;52.164;21.244;2022-09-02T03:53:57;6.80;99.90
49855;DHT22;35752;52.164;21.244;2022-09-02T03:56:23;6.80;99.90
49855;DHT22;35752;52.164;21.244;2022-09-02T03:58:51;6.70;99.90
49855;DHT22;35752;52.164;21.244;2022-09-02T04:01:22;6.80;99.90
49855;DHT22;35752;52.164;21.244;2022-09-02T04:03:49;6.80;99.90
49855;DHT22;35752;52.164;21.244;2022-09-02T04:06:17;6.80;99.90
49855;DHT22;35752;52.164;21.244;2022-09-02T04:08:45;6.90;99.90
49855;DHT22;35752;52.164;21.244;2022-09-02T04:11:13;6.90;99.90
49855;DHT22;35752;52.164;21.244;2022-09-02T04:13:41;6.90;99.90
49855;DHT22;35752;52.164;21.244;2022-09-02T04:16:14;6.90;99.90
49855;DHT22;35752;52.164;21.244;2022-09-02T04:18:40;6.90;99.90
49855;DHT22;35752;52.164;21.244;2022-09-02T04:21:06;7.00;99.90
49855;DHT22;35752;52.164;21.244;2022-09-02T04:23:33;7.10;99.90
49855;DHT22;35752;52.164;21.244;2022-09-02T04:26:04;7.20;99.90
49855;DHT22;35752;52.164;21.244;2022-09-02T04:28:33;7.30;99.90
49855;DHT22;35752;52.164;21.244;2022-09-02T04:31:02;7.30;99.90
49855;DHT22;35752;52.164;21.244;2022-09-02T04:33:31;7.40;99.90
49855;DHT22;35752;52.164;21.244;2022-09-02T04:36:03;7.50;99.90
49855;DHT22;35752;52.164;21.244;2022-09-02T04:38:29;7.50;99.90
49855;DHT22;35752;52.164;21.244;2022-09-02T04:40:56;7.60;99.90
49855;DHT22;35752;52.164;21.244;2022-09-02T04:43:22;7.70;99.90
49855;DHT22;35752;52.164;21.244;2022-09-02T04:45:49;7.70;99.90
49855;DHT22;35752;52.164;21.244;2022-09-02T04:48:16;7.80;99.90
49855;DHT22;35752;52.164;21.244;2022-09-02T04:50:46;7.80;99.90
49855;DHT22;35752;52.164;21.244;2022-09-02T04:53:13;8.00;99.90
49855;DHT22;35752;52.164;21.244;2022-09-02T04:55:40;8.00;99.90
49855;DHT22;35752;52.164;21.244;2022-09-02T04:58:07;8.20;99.90
49855;DHT22;35752;52.164;21.244;2022-09-02T05:00:32;8.30;99.90
49855;DHT22;35752;52.164;21.244;2022-09-02T05:02:58;8.50;99.90
49855;DHT22;35752;52.164;21.244;2022-09-02T05:05:27;8.60;99.90
49855;DHT22;35752;52.164;21.244;2022-09-02T05:07:53;8.70;99.90
49855;DHT22;35752;52.164;21.244;2022-09-02T05:10:20;8.70;99.90
49855;DHT22;35752;52.164;21.244;2022-09-02T05:12:46;8.80;99.90
49855;DHT22;35752;52.164;21.244;2022-09-02T05:15:12;9.00;99.90
49855;DHT22;35752;52.164;21.244;2022-09-02T05:17:38;9.10;99.90
49855;DHT22;35752;52.164;21.244;2022-09-02T05:20:05;9.20;99.90
49855;DHT22;35752;52.164;21.244;2022-09-02T05:22:32;9.40;99.90
49855;DHT22;35752;52.164;21.244;2022-09-02T05:24:58;9.50;99.90
49855;DHT22;35752;52.164;21.244;2022-09-02T05:27:23;9.60;99.90
49855;DHT22;35752;52.164;21.244;2022-09-02T05:29:54;9.80;99.90
49855;DHT22;35752;52.164;21.244;2022-09-02T05:32:20;9.90;99.90
49855;DHT22;35752;52.164;21.244;2022-09-02T05:34:47;10.10;99.90
49855;DHT22;35752;52.164;21.244;2022-09-02T05:37:13;10.20;99.90
49855;DHT22;35752;52.164;21.244;2022-09-02T05:39:39;10.30;99.90
49855;DHT22;35752;52.164;21.244;2022-09-02T05:42:05;10.40;99.90
49855;DHT22;35752;52.164;21.244;2022-09-02T05:44:30;10.50;99.90
49855;DHT22;35752;52.164;21.244;2022-09-02T05:46:56;10.60;99.90
49855;DHT22;35752;52.164;21.244;2022-09-02T05:49:24;10.70;99.90
49855;DHT22;35752;52.164;21.244;2022-09-02T05:51:59;10.90;99.90
49855;DHT22;35752;52.164;21.244;2022-09-02T05:54:28;11.10;99.90
49855;DHT22;35752;52.164;21.244;2022-09-02T05:56:56;11.20;99.90
49855;DHT22;35752;52.164;21.244;2022-09-02T05:59:24;11.40;99.90
49855;DHT22;35752;52.164;21.244;2022-09-02T06:01:51;11.50;99.90
49855;DHT22;35752;52.164;21.244;2022-09-02T06:04:18;11.60;99.90
49855;DHT22;35752;52.164;21.244;2022-09-02T06:06:44;11.70;99.90
49855;DHT22;35752;52.164;21.244;2022-09-02T06:09:14;11.90;99.90
49855;DHT22;35752;52.164;21.244;2022-09-02T06:11:41;11.90;99.90
49855;DHT22;35752;52.164;21.244;2022-09-02T06:14:11;12.00;99.90
49855;DHT22;35752;52.164;21.244;2022-09-02T06:16:39;12.20;99.90
49855;DHT22;35752;52.164;21.244;2022-09-02T06:19:05;12.30;99.90
49855;DHT22;35752;52.164;21.244;2022-09-02T06:21:32;12.40;99.90
49855;DHT22;35752;52.164;21.244;2022-09-02T06:24:08;12.50;99.90
49855;DHT22;35752;52.164;21.244;2022-09-02T06:26:35;12.70;99.90
49855;DHT22;35752;52.164;21.244;2022-09-02T06:29:04;12.80;99.90
49855;DHT22;35752;52.164;21.244;2022-09-02T06:31:31;13.00;99.90
49855;DHT22;35752;52.164;21.244;2022-09-02T06:34:00;13.10;99.90
49855;DHT22;35752;52.164;21.244;2022-09-02T06:36:27;13.20;99.90
49855;DHT22;35752;52.164;21.244;2022-09-02T06:38:55;13.30;99.90
49855;DHT22;35752;52.164;21.244;2022-09-02T06:41:24;13.40;99.90
49855;DHT22;35752;52.164;21.244;2022-09-02T06:43:59;13.50;99.90
49855;DHT22;35752;52.164;21.244;2022-09-02T06:46:31;13.60;99.90
49855;DHT22;35752;52.164;21.244;2022-09-02T06:48:57;13.80;99.90
49855;DHT22;35752;52.164;21.244;2022-09-02T06:51:32;14.00;99.90
49855;DHT22;35752;52.164;21.244;2022-09-02T06:53:59;14.00;99.90
49855;DHT22;35752;52.164;21.244;2022-09-02T06:56:25;14.30;99.90
49855;DHT22;35752;52.164;21.244;2022-09-02T06:58:51;14.30;99.90
49855;DHT22;35752;52.164;21.244;2022-09-02T07:01:26;14.40;99.90
49855;DHT22;35752;52.164;21.244;2022-09-02T07:03:55;14.40;99.90
49855;DHT22;35752;52.164;21.244;2022-09-02T07:06:48;14.50;99.90
49855;DHT22;35752;52.164;21.244;2022-09-02T07:09:18;14.60;99.90
49855;DHT22;35752;52.164;21.244;2022-09-02T07:11:45;14.60;99.90
49855;DHT22;35752;52.164;21.244;2022-09-02T07:14:15;14.70;99.90
49855;DHT22;35752;52.164;21.244;2022-09-02T07:16:45;14.70;99.90
49855;DHT22;35752;52.164;21.244;2022-09-02T07:19:11;14.90;99.90
49855;DHT22;35752;52.164;21.244;2022-09-02T07:21:38;14.90;99.90
49855;DHT22;35752;52.164;21.244;2022-09-02T07:24:07;15.00;99.90
49855;DHT22;35752;52.164;21.244;2022-09-02T07:26:35;15.20;99.90
49855;DHT22;35752;52.164;21.244;2022-09-02T07:29:01;15.30;99.90
49855;DHT22;35752;52.164;21.244;2022-09-02T07:31:27;15.40;99.90
49855;DHT22;35752;52.164;21.244;2022-09-02T07:33:54;15.50;99.90
49855;DHT22;35752;52.164;21.244;2022-09-02T07:36:24;15.70;99.90
49855;DHT22;35752;52.164;21.244;2022-09-02T07:38:50;15.90;99.90
49855;DHT22;35752;52.164;21.244;2022-09-02T07:41:18;16.00;99.90
49855;DHT22;35752;52.164;21.244;2022-09-02T07:43:44;16.00;99.90
49855;DHT22;35752;52.164;21.244;2022-09-02T07:46:11;16.00;99.90
49855;DHT22;35752;52.164;21.244;2022-09-02T07:48:46;15.90;99.90
49855;DHT22;35752;52.164;21.244;2022-09-02T07:51:15;16.10;99.90
49855;DHT22;35752;52.164;21.244;2022-09-02T07:53:42;16.20;99.90
49855;DHT22;35752;52.164;21.244;2022-09-02T07:56:10;16.40;99.90
49855;DHT22;35752;52.164;21.244;2022-09-02T07:58:36;16.30;99.90
49855;DHT22;35752;52.164;21.244;2022-09-02T08:01:02;16.30;99.90
49855;DHT22;35752;52.164;21.244;2022-09-02T08:03:28;16.10;99.90
49855;DHT22;35752;52.164;21.244;2022-09-02T08:05:56;16.20;99.90
49855;DHT22;35752;52.164;21.244;2022-09-02T08:08:22;16.30;99.90
49855;DHT22;35752;52.164;21.244;2022-09-02T08:10:51;16.40;99.90
49855;DHT22;35752;52.164;21.244;2022-09-02T08:13:17;16.40;99.90
49855;DHT22;35752;52.164;21.244;2022-09-02T08:15:43;16.50;99.90
49855;DHT22;35752;52.164;21.244;2022-09-02T08:18:09;16.50;99.90
49855;DHT22;35752;52.164;21.244;2022-09-02T08:20:35;16.50;99.90
49855;DHT22;35752;52.164;21.244;2022-09-02T08:23:02;16.50;99.90
49855;DHT22;35752;52.164;21.244;2022-09-02T08:25:28;16.50;99.90
49855;DHT22;35752;52.164;21.244;2022-09-02T08:27:54;16.60;99.90
49855;DHT22;35752;52.164;21.244;2022-09-02T08:30:20;16.70;99.90
49855;DHT22;35752;52.164;21.244;2022-09-02T08:32:49;16.80;99.90
49855;DHT22;35752;52.164;21.244;2022-09-02T08:35:15;16.70;99.80
49855;DHT22;35752;52.164;21.244;2022-09-02T08:37:43;16.90;99.90
49855;DHT22;35752;52.164;21.244;2022-09-02T08:40:18;16.90;99.90
49855;DHT22;35752;52.164;21.244;2022-09-02T08:42:58;17.00;99.80
49855;DHT22;35752;52.164;21.244;2022-09-02T08:45:42;17.10;99.90
49855;DHT22;35752;52.164;21.244;2022-09-02T08:48:20;17.10;99.90
49855;DHT22;35752;52.164;21.244;2022-09-02T08:50:49;17.10;99.90
49855;DHT22;35752;52.164;21.244;2022-09-02T08:53:24;17.20;98.50
49855;DHT22;35752;52.164;21.244;2022-09-02T08:55:56;17.30;98.80
49855;DHT22;35752;52.164;21.244;2022-09-02T08:58:26;17.40;97.60
49855;DHT22;35752;52.164;21.244;2022-09-02T09:09:25;17.70;92.10
49855;DHT22;35752;52.164;21.244;2022-09-02T09:12:14;17.70;90.00
49855;DHT22;35752;52.164;21.244;2022-09-02T09:15:38;17.70;90.30
49855;DHT22;35752;52.164;21.244;2022-09-02T09:18:12;17.60;91.30
49855;DHT22;35752;52.164;21.244;2022-09-02T09:20:40;17.50;91.60
49855;DHT22;35752;52.164;21.244;2022-09-02T09:23:30;17.50;93.30
49855;DHT22;35752;52.164;21.244;2022-09-02T09:26:06;17.60;92.50
49855;DHT22;35752;52.164;21.244;2022-09-02T09:28:39;17.60;92.70
49855;DHT22;35752;52.164;21.244;2022-09-02T09:31:13;17.80;92.20
49855;DHT22;35752;52.164;21.244;2022-09-02T09:33:56;17.90;90.10
49855;DHT22;35752;52.164;21.244;2022-09-02T09:39:35;18.00;87.60
49855;DHT22;35752;52.164;21.244;2022-09-02T09:42:03;18.10;88.30
49855;DHT22;35752;52.164;21.244;2022-09-02T09:44:47;18.20;85.00
49855;DHT22;35752;52.164;21.244;2022-09-02T09:47:19;18.20;85.70
49855;DHT22;35752;52.164;21.244;2022-09-02T09:49:49;18.20;83.00
49855;DHT22;35752;52.164;21.244;2022-09-02T09:52:23;18.20;83.90
49855;DHT22;35752;52.164;21.244;2022-09-02T09:55:24;18.20;82.60
49855;DHT22;35752;52.164;21.244;2022-09-02T09:57:51;18.30;84.40
49855;DHT22;35752;52.164;21.244;2022-09-02T10:00:28;18.30;80.50
49855;DHT22;35752;52.164;21.244;2022-09-02T10:03:05;18.20;81.60
49855;DHT22;35752;52.164;21.244;2022-09-02T10:05:37;18.20;80.00
49855;DHT22;35752;52.164;21.244;2022-09-02T10:08:24;18.10;82.60
49855;DHT22;35752;52.164;21.244;2022-09-02T10:11:30;18.10;81.90
49855;DHT22;35752;52.164;21.244;2022-09-02T10:14:26;18.30;80.90
49855;DHT22;35752;52.164;21.244;2022-09-02T10:31:28;18.80;75.20
49855;DHT22;35752;52.164;21.244;2022-09-02T10:37:20;18.80;74.10
49855;DHT22;35752;52.164;21.244;2022-09-02T10:40:12;18.70;73.80
49855;DHT22;35752;52.164;21.244;2022-09-02T10:45:58;18.70;76.40
49855;DHT22;35752;52.164;21.244;2022-09-02T10:58:04;18.70;73.00
49855;DHT22;35752;52.164;21.244;2022-09-02T11:00:39;18.80;73.70
49855;DHT22;35752;52.164;21.244;2022-09-02T11:03:09;19.00;71.60
49855;DHT22;35752;52.164;21.244;2022-09-02T11:05:50;19.10;70.80
49855;DHT22;35752;52.164;21.244;2022-09-02T11:17:30;19.50;69.30
49855;DHT22;35752;52.164;21.244;2022-09-02T11:20:06;19.60;68.20
49855;DHT22;35752;52.164;21.244;2022-09-02T11:22:47;19.60;67.70
49855;DHT22;35752;52.164;21.244;2022-09-02T11:25:31;19.70;66.10
49855;DHT22;35752;52.164;21.244;2022-09-02T11:31:09;19.40;69.10
49855;DHT22;35752;52.164;21.244;2022-09-02T11:36:25;19.50;68.10
49855;DHT22;35752;52.164;21.244;2022-09-02T11:39:26;19.40;67.30
49855;DHT22;35752;52.164;21.244;2022-09-02T11:56:34;19.80;67.30
49855;DHT22;35752;52.164;21.244;2022-09-02T11:58:41;19.90;66.20
49855;DHT22;35752;52.164;21.244;2022-09-02T12:04:01;19.80;64.70
49855;DHT22;35752;52.164;21.244;2022-09-02T12:06:29;19.70;66.80
49855;DHT22;35752;52.164;21.244;2022-09-02T12:09:02;19.60;67.40
49855;DHT22;35752;52.164;21.244;2022-09-02T12:11:46;19.60;69.30
49855;DHT22;35752;52.164;21.244;2022-09-02T12:17:08;19.50;67.20
49855;DHT22;35752;52.164;21.244;2022-09-02T12:19:43;19.60;67.20
49855;DHT22;35752;52.164;21.244;2022-09-02T12:25:00;19.40;66.50
49855;DHT22;35752;52.164;21.244;2022-09-02T12:27:36;19.40;66.60
49855;DHT22;35752;52.164;21.244;2022-09-02T12:30:07;19.60;67.90
49855;DHT22;35752;52.164;21.244;2022-09-02T12:54:40;19.50;68.30
49855;DHT22;35752;52.164;21.244;2022-09-02T12:57:17;19.60;67.10
49855;DHT22;35752;52.164;21.244;2022-09-02T12:59:45;19.70;66.80
49855;DHT22;35752;52.164;21.244;2022-09-02T13:05:24;20.10;65.70
49855;DHT22;35752;52.164;21.244;2022-09-02T13:17:21;20.50;64.60
49855;DHT22;35752;52.164;21.244;2022-09-02T13:26:05;20.80;64.50
49855;DHT22;35752;52.164;21.244;2022-09-02T13:31:24;21.00;65.40
49855;DHT22;35752;52.164;21.244;2022-09-02T13:34:01;20.80;61.90
49855;DHT22;35752;52.164;21.244;2022-09-02T13:36:36;20.80;62.70
49855;DHT22;35752;52.164;21.244;2022-09-02T13:39:19;20.80;63.10
49855;DHT22;35752;52.164;21.244;2022-09-02T13:41:45;20.70;63.20
49855;DHT22;35752;52.164;21.244;2022-09-02T13:44:19;20.50;63.90
49855;DHT22;35752;52.164;21.244;2022-09-02T13:46:53;20.40;64.00
49855;DHT22;35752;52.164;21.244;2022-09-02T13:49:40;20.30;64.40
49855;DHT22;35752;52.164;21.244;2022-09-02T13:52:15;20.10;65.00
49855;DHT22;35752;52.164;21.244;2022-09-02T13:54:47;20.00;66.00
49855;DHT22;35752;52.164;21.244;2022-09-02T13:57:21;19.80;66.20
49855;DHT22;35752;52.164;21.244;2022-09-02T13:59:50;19.70;67.00
49855;DHT22;35752;52.164;21.244;2022-09-02T14:02:22;19.50;67.00
49855;DHT22;35752;52.164;21.244;2022-09-02T14:04:52;19.40;68.10
49855;DHT22;35752;52.164;21.244;2022-09-02T14:07:21;19.40;68.70
49855;DHT22;35752;52.164;21.244;2022-09-02T14:09:48;19.30;69.50
49855;DHT22;35752;52.164;21.244;2022-09-02T14:12:15;19.30;69.10
49855;DHT22;35752;52.164;21.244;2022-09-02T14:14:41;19.30;71.00
49855;DHT22;35752;52.164;21.244;2022-09-02T14:17:22;19.20;72.40
49855;DHT22;35752;52.164;21.244;2022-09-02T14:19:48;19.30;72.10
49855;DHT22;35752;52.164;21.244;2022-09-02T14:22:22;19.40;73.60
49855;DHT22;35752;52.164;21.244;2022-09-02T14:24:48;19.50;72.00
49855;DHT22;35752;52.164;21.244;2022-09-02T14:27:19;19.70;68.40
49855;DHT22;35752;52.164;21.244;2022-09-02T14:29:47;19.80;66.90
49855;DHT22;35752;52.164;21.244;2022-09-02T14:32:21;20.00;66.50
49855;DHT22;35752;52.164;21.244;2022-09-02T14:35:06;20.10;68.00
49855;DHT22;35752;52.164;21.244;2022-09-02T14:37:33;20.30;65.80
49855;DHT22;35752;52.164;21.244;2022-09-02T14:42:25;20.50;64.90
49855;DHT22;35752;52.164;21.244;2022-09-02T14:44:51;20.60;65.10
49855;DHT22;35752;52.164;21.244;2022-09-02T14:47:18;20.70;64.50
49855;DHT22;35752;52.164;21.244;2022-09-02T14:49:48;20.70;63.90
49855;DHT22;35752;52.164;21.244;2022-09-02T14:54:45;20.50;63.50
49855;DHT22;35752;52.164;21.244;2022-09-02T14:57:30;20.40;64.30
49855;DHT22;35752;52.164;21.244;2022-09-02T14:59:58;20.30;64.80
49855;DHT22;35752;52.164;21.244;2022-09-02T15:04:53;20.10;65.80
49855;DHT22;35752;52.164;21.244;2022-09-02T15:07:19;19.90;66.00
49855;DHT22;35752;52.164;21.244;2022-09-02T15:09:45;19.80;65.70
49855;DHT22;35752;52.164;21.244;2022-09-02T15:12:16;19.70;66.50
49855;DHT22;35752;52.164;21.244;2022-09-02T15:14:44;19.50;66.70
49855;DHT22;35752;52.164;21.244;2022-09-02T15:17:15;19.40;68.80
49855;DHT22;35752;52.164;21.244;2022-09-02T15:19:41;19.20;68.10
49855;DHT22;35752;52.164;21.244;2022-09-02T15:22:07;19.10;69.30
49855;DHT22;35752;52.164;21.244;2022-09-02T15:24:33;18.90;70.10
49855;DHT22;35752;52.164;21.244;2022-09-02T15:26:58;18.80;70.80
49855;DHT22;35752;52.164;21.244;2022-09-02T15:29:24;18.70;71.10
49855;DHT22;35752;52.164;21.244;2022-09-02T15:31:51;18.60;75.00
49855;DHT22;35752;52.164;21.244;2022-09-02T15:34:17;18.50;72.20
49855;DHT22;35752;52.164;21.244;2022-09-02T15:36:43;18.40;74.20
49855;DHT22;35752;52.164;21.244;2022-09-02T15:39:09;18.30;74.40
49855;DHT22;35752;52.164;21.244;2022-09-02T15:41:35;18.30;74.70
49855;DHT22;35752;52.164;21.244;2022-09-02T15:44:04;18.10;74.00
49855;DHT22;35752;52.164;21.244;2022-09-02T15:46:32;18.10;74.80
49855;DHT22;35752;52.164;21.244;2022-09-02T15:49:04;18.10;75.60
49855;DHT22;35752;52.164;21.244;2022-09-02T15:51:30;18.10;77.60
49855;DHT22;35752;52.164;21.244;2022-09-02T15:53:58;18.00;77.50
49855;DHT22;35752;52.164;21.244;2022-09-02T15:56:26;17.90;80.40
49855;DHT22;35752;52.164;21.244;2022-09-02T15:59:02;17.80;79.30
49855;DHT22;35752;52.164;21.244;2022-09-02T16:01:33;17.70;81.80
49855;DHT22;35752;52.164;21.244;2022-09-02T16:04:00;17.60;81.10
49855;DHT22;35752;52.164;21.244;2022-09-02T16:06:29;17.60;81.30
49855;DHT22;35752;52.164;21.244;2022-09-02T16:08:56;17.60;80.80
49855;DHT22;35752;52.164;21.244;2022-09-02T16:11:22;17.50;83.90
49855;DHT22;35752;52.164;21.244;2022-09-02T16:13:48;17.40;84.80
49855;DHT22;35752;52.164;21.244;2022-09-02T16:16:14;17.30;86.30
49855;DHT22;35752;52.164;21.244;2022-09-02T16:18:42;17.20;89.00
49855;DHT22;35752;52.164;21.244;2022-09-02T16:21:09;17.10;91.10
49855;DHT22;35752;52.164;21.244;2022-09-02T16:23:35;17.10;91.80
49855;DHT22;35752;52.164;21.244;2022-09-02T16:28:46;17.00;94.60
49855;DHT22;35752;52.164;21.244;2022-09-02T16:31:14;16.80;95.00
49855;DHT22;35752;52.164;21.244;2022-09-02T16:33:42;16.70;96.50
49855;DHT22;35752;52.164;21.244;2022-09-02T16:36:09;16.60;97.90
49855;DHT22;35752;52.164;21.244;2022-09-02T16:38:35;16.60;98.30
49855;DHT22;35752;52.164;21.244;2022-09-02T16:41:02;16.50;99.60
49855;DHT22;35752;52.164;21.244;2022-09-02T16:43:29;16.30;99.90
49855;DHT22;35752;52.164;21.244;2022-09-02T16:45:58;16.10;99.90
49855;DHT22;35752;52.164;21.244;2022-09-02T16:48:29;16.10;99.90
49855;DHT22;35752;52.164;21.244;2022-09-02T16:51:00;16.00;99.90
49855;DHT22;35752;52.164;21.244;2022-09-02T16:53:27;15.90;99.90
49855;DHT22;35752;52.164;21.244;2022-09-02T16:55:53;15.80;99.90
49855;DHT22;35752;52.164;21.244;2022-09-02T16:58:19;15.70;99.90
49855;DHT22;35752;52.164;21.244;2022-09-02T17:00:44;15.60;99.90
49855;DHT22;35752;52.164;21.244;2022-09-02T17:03:11;15.50;99.90
49855;DHT22;35752;52.164;21.244;2022-09-02T17:05:37;15.40;99.90
49855;DHT22;35752;52.164;21.244;2022-09-02T17:08:04;15.40;99.90
49855;DHT22;35752;52.164;21.244;2022-09-02T17:10:31;15.40;99.90
49855;DHT22;35752;52.164;21.244;2022-09-02T17:12:57;15.40;99.90
49855;DHT22;35752;52.164;21.244;2022-09-02T17:15:24;15.30;99.90
49855;DHT22;35752;52.164;21.244;2022-09-02T17:17:51;15.20;99.90
49855;DHT22;35752;52.164;21.244;2022-09-02T17:20:17;15.10;99.90
49855;DHT22;35752;52.164;21.244;2022-09-02T17:22:42;15.00;99.90
49855;DHT22;35752;52.164;21.244;2022-09-02T17:25:09;14.90;99.90
49855;DHT22;35752;52.164;21.244;2022-09-02T17:27:36;14.90;99.90
49855;DHT22;35752;52.164;21.244;2022-09-02T17:30:04;14.80;99.90
49855;DHT22;35752;52.164;21.244;2022-09-02T17:32:30;14.70;99.90
49855;DHT22;35752;52.164;21.244;2022-09-02T17:34:55;14.60;99.90
49855;DHT22;35752;52.164;21.244;2022-09-02T17:37:21;14.50;99.90
49855;DHT22;35752;52.164;21.244;2022-09-02T17:39:48;14.40;99.90
49855;DHT22;35752;52.164;21.244;2022-09-02T17:42:13;14.30;99.90
49855;DHT22;35752;52.164;21.244;2022-09-02T17:44:39;14.20;99.90
49855;DHT22;35752;52.164;21.244;2022-09-02T17:49:36;14.10;99.90
49855;DHT22;35752;52.164;21.244;2022-09-02T17:52:03;14.00;99.90
49855;DHT22;35752;52.164;21.244;2022-09-02T17:54:32;13.90;99.90
49855;DHT22;35752;52.164;21.244;2022-09-02T18:00:10;13.80;99.90
49855;DHT22;35752;52.164;21.244;2022-09-02T18:02:51;13.70;99.90